sensor_id;sensor_type;location;lat;lon;timestamp;temperature;humidity
61672;DHT22;47572;0.00000000;0.00000000;2022-12-05T00:00:29;18.30;63.70
61672;DHT22;47572;0.00000000;0.00000000;2022-12-05T00:02:54;18.20;63.60
61672;DHT22;47572;0.00000000;0.00000000;2022-12-05T00:05:20;18.20;63.60
61672;DHT22;47572;0.00000000;0.00000000;2022-12-05T00:07:46;18.20;63.60
61672;DHT22;47572;0.00000000;0.00000000;2022-12-05T00:10:12;18.20;63.60
61672;DHT22;47572;0.00000000;0.00000000;2022-12-05T00:12:37;18.20;63.60
61672;DHT22;47572;0.00000000;0.00000000;2022-12-05T00:15:03;18.20;63.60
61672;DHT22;47572;0.00000000;0.00000000;2022-12-05T00:17:30;18.20;63.70
61672;DHT22;47572;0.00000000;0.00000000;2022-12-05T00:19:56;18.20;63.60
61672;DHT22;47572;0.00000000;0.00000000;2022-12-05T00:22:21;18.20;63.70
61672;DHT22;47572;0.00000000;0.00000000;2022-12-05T00:24:47;18.10;63.60
61672;DHT22;47572;0.00000000;0.00000000;2022-12-05T00:27:13;18.10;63.60
61672;DHT22;47572;0.00000000;0.00000000;2022-12-05T00:29:38;18.10;63.60
61672;DHT22;47572;0.00000000;0.00000000;2022-12-05T00:32:04;18.10;63.60
61672;DHT22;47572;0.00000000;0.00000000;2022-12-05T00:34:30;18.10;63.70
61672;DHT22;47572;0.00000000;0.00000000;2022-12-05T00:36:55;18.10;63.60
61672;DHT22;47572;0.00000000;0.00000000;2022-12-05T00:39:21;18.10;63.70
61672;DHT22;47572;0.00000000;0.00000000;2022-12-05T00:41:47;18.10;63.70
61672;DHT22;47572;0.00000000;0.00000000;2022-12-05T00:44:12;18.00;63.70
61672;DHT22;47572;0.00000000;0.00000000;2022-12-05T00:46:38;18.00;63.60
61672;DHT22;47572;0.00000000;0.00000000;2022-12-05T00:49:05;18.00;63.70
61672;DHT22;47572;0.00000000;0.00000000;2022-12-05T00:51:36;18.00;63.70
61672;DHT22;47572;0.00000000;0.00000000;2022-12-05T00:54:03;18.00;63.70
61672;DHT22;47572;0.00000000;0.00000000;2022-12-05T00:56:29;18.00;63.70
61672;DHT22;47572;0.00000000;0.00000000;2022-12-05T00:58:56;18.00;63.70
61672;DHT22;47572;0.00000000;0.00000000;2022-12-05T01:01:23;18.00;63.70
61672;DHT22;47572;0.00000000;0.00000000;2022-12-05T01:03:50;18.00;63.70
61672;DHT22;47572;0.00000000;0.00000000;2022-12-05T01:06:16;18.00;63.70
61672;DHT22;47572;0.00000000;0.00000000;2022-12-05T01:08:42;18.00;63.80
61672;DHT22;47572;0.00000000;0.00000000;2022-12-05T01:11:08;17.90;63.70
61672;DHT22;47572;0.00000000;0.00000000;2022-12-05T01:13:34;17.90;63.70
61672;DHT22;47572;0.00000000;0.00000000;2022-12-05T01:16:00;17.90;63.60
61672;DHT22;47572;0.00000000;0.00000000;2022-12-05T01:18:26;17.90;63.60
61672;DHT22;47572;0.00000000;0.00000000;2022-12-05T01:20:52;17.90;63.70
61672;DHT22;47572;0.00000000;0.00000000;2022-12-05T01:23:18;17.90;63.70
61672;DHT22;47572;0.00000000;0.00000000;2022-12-05T01:25:45;17.90;63.70
61672;DHT22;47572;0.00000000;0.00000000;2022-12-05T01:28:11;17.90;63.70
61672;DHT22;47572;0.00000000;0.00000000;2022-12-05T01:30:38;17.80;63.70
61672;DHT22;47572;0.00000000;0.00000000;2022-12-05T01:33:04;17.80;63.70
61672;DHT22;47572;0.00000000;0.00000000;2022-12-05T01:35:30;17.90;63.70
61672;DHT22;47572;0.00000000;0.00000000;2022-12-05T01:37:56;17.80;63.70
61672;DHT22;47572;0.00000000;0.00000000;2022-12-05T01:40:22;17.80;63.70
61672;DHT22;47572;0.00000000;0.00000000;2022-12-05T01:42:48;17.80;63.70
61672;DHT22;47572;0.00000000;0.00000000;2022-12-05T01:45:15;17.80;63.80
61672;DHT22;47572;0.00000000;0.00000000;2022-12-05T01:47:41;17.80;63.70
61672;DHT22;47572;0.00000000;0.00000000;2022-12-05T01:50:07;17.80;63.70
61672;DHT22;47572;0.00000000;0.00000000;2022-12-05T01:52:33;17.80;63.80
61672;DHT22;47572;0.00000000;0.00000000;2022-12-05T01:55:02;17.80;63.70
61672;DHT22;47572;0.00000000;0.00000000;2022-12-05T01:57:28;17.80;63.70
61672;DHT22;47572;0.00000000;0.00000000;2022-12-05T02:00:01;17.80;64.60
61672;DHT22;47572;0.00000000;0.00000000;2022-12-05T02:02:28;17.70;63.70
61672;DHT22;47572;0.00000000;0.00000000;2022-12-05T02:04:58;17.70;63.70
61672;DHT22;47572;0.00000000;0.00000000;2022-12-05T02:07:25;17.70;63.70
61672;DHT22;47572;0.00000000;0.00000000;2022-12-05T02:09:51;17.70;63.70
61672;DHT22;47572;0.00000000;0.00000000;2022-12-05T02:12:17;17.70;63.70
61672;DHT22;47572;0.00000000;0.00000000;2022-12-05T02:19:51;17.70;63.70
61672;DHT22;47572;0.00000000;0.00000000;2022-12-05T02:22:22;17.70;63.70
61672;DHT22;47572;0.00000000;0.00000000;2022-12-05T02:30:11;17.70;63.60
61672;DHT22;47572;0.00000000;0.00000000;2022-12-05T02:40:25;17.60;63.60
61672;DHT22;47572;0.00000000;0.00000000;2022-12-05T02:42:55;17.60;63.70
61672;DHT22;47572;0.00000000;0.00000000;2022-12-05T02:45:23;17.60;63.70
61672;DHT22;47572;0.00000000;0.00000000;2022-12-05T02:47:50;17.60;63.70
61672;DHT22;47572;0.00000000;0.00000000;2022-12-05T02:50:18;17.60;63.60
61672;DHT22;47572;0.00000000;0.00000000;2022-12-05T02:52:44;17.60;63.70
61672;DHT22;47572;0.00000000;0.00000000;2022-12-05T02:55:12;17.60;63.60
61672;DHT22;47572;0.00000000;0.00000000;2022-12-05T02:57:38;17.60;63.70
61672;DHT22;47572;0.00000000;0.00000000;2022-12-05T03:00:07;17.60;63.70
61672;DHT22;47572;0.00000000;0.00000000;2022-12-05T03:02:33;17.60;63.70
61672;DHT22;47572;0.00000000;0.00000000;2022-12-05T03:07:43;17.50;63.60
61672;DHT22;47572;0.00000000;0.00000000;2022-12-05T03:10:11;17.50;63.60
61672;DHT22;47572;0.00000000;0.00000000;2022-12-05T03:12:38;17.50;63.70
61672;DHT22;47572;0.00000000;0.00000000;2022-12-05T03:17:36;17.50;63.60
61672;DHT22;47572;0.00000000;0.00000000;2022-12-05T03:20:05;17.50;63.60
61672;DHT22;47572;0.00000000;0.00000000;2022-12-05T03:22:32;17.50;63.60
61672;DHT22;47572;0.00000000;0.00000000;2022-12-05T03:24:59;17.50;63.70
61672;DHT22;47572;0.00000000;0.00000000;2022-12-05T03:27:36;17.50;63.70
61672;DHT22;47572;0.00000000;0.00000000;2022-12-05T03:30:06;17.50;63.70
61672;DHT22;47572;0.00000000;0.00000000;2022-12-05T03:32:39;17.50;63.70
61672;DHT22;47572;0.00000000;0.00000000;2022-12-05T03:37:56;17.40;63.70
61672;DHT22;47572;0.00000000;0.00000000;2022-12-05T03:40:26;17.40;63.70
61672;DHT22;47572;0.00000000;0.00000000;2022-12-05T03:42:56;17.40;63.70
61672;DHT22;47572;0.00000000;0.00000000;2022-12-05T03:45:27;17.40;63.70
61672;DHT22;47572;0.00000000;0.00000000;2022-12-05T03:48:03;17.40;63.70
61672;DHT22;47572;0.00000000;0.00000000;2022-12-05T03:50:30;17.40;63.70
61672;DHT22;47572;0.00000000;0.00000000;2022-12-05T03:52:57;17.40;63.70
61672;DHT22;47572;0.00000000;0.00000000;2022-12-05T03:55:24;17.40;63.70
61672;DHT22;47572;0.00000000;0.00000000;2022-12-05T03:57:58;17.40;63.70
61672;DHT22;47572;0.00000000;0.00000000;2022-12-05T04:00:25;17.40;63.70
61672;DHT22;47572;0.00000000;0.00000000;2022-12-05T04:05:30;17.30;63.60
61672;DHT22;47572;0.00000000;0.00000000;2022-12-05T04:08:00;17.40;63.70
61672;DHT22;47572;0.00000000;0.00000000;2022-12-05T04:10:28;17.40;63.80
61672;DHT22;47572;0.00000000;0.00000000;2022-12-05T04:12:57;17.30;63.70
61672;DHT22;47572;0.00000000;0.00000000;2022-12-05T04:15:43;17.30;63.80
61672;DHT22;47572;0.00000000;0.00000000;2022-12-05T04:18:29;17.30;63.70
61672;DHT22;47572;0.00000000;0.00000000;2022-12-05T04:20:55;17.30;63.80
61672;DHT22;47572;0.00000000;0.00000000;2022-12-05T04:23:40;17.30;63.80
61672;DHT22;47572;0.00000000;0.00000000;2022-12-05T04:26:15;17.30;63.70
61672;DHT22;47572;0.00000000;0.00000000;2022-12-05T04:28:48;17.30;63.80
61672;DHT22;47572;0.00000000;0.00000000;2022-12-05T04:36:16;17.30;63.80
61672;DHT22;47572;0.00000000;0.00000000;2022-12-05T04:39:00;17.20;63.70
61672;DHT22;47572;0.00000000;0.00000000;2022-12-05T04:41:37;17.20;63.70
61672;DHT22;47572;0.00000000;0.00000000;2022-12-05T04:44:05;17.20;63.70
61672;DHT22;47572;0.00000000;0.00000000;2022-12-05T04:46:31;17.20;63.80
61672;DHT22;47572;0.00000000;0.00000000;2022-12-05T04:48:59;17.20;63.80
61672;DHT22;47572;0.00000000;0.00000000;2022-12-05T04:51:27;17.20;63.70
61672;DHT22;47572;0.00000000;0.00000000;2022-12-05T04:53:59;17.20;63.80
61672;DHT22;47572;0.00000000;0.00000000;2022-12-05T04:56:26;17.20;63.80
61672;DHT22;47572;0.00000000;0.00000000;2022-12-05T04:58:54;17.20;63.70
61672;DHT22;47572;0.00000000;0.00000000;2022-12-05T05:01:30;17.20;63.80
61672;DHT22;47572;0.00000000;0.00000000;2022-12-05T05:04:10;17.20;63.80
61672;DHT22;47572;0.00000000;0.00000000;2022-12-05T05:06:37;17.20;63.80
61672;DHT22;47572;0.00000000;0.00000000;2022-12-05T05:09:03;17.20;63.80
61672;DHT22;47572;0.00000000;0.00000000;2022-12-05T05:11:33;17.10;63.80
61672;DHT22;47572;0.00000000;0.00000000;2022-12-05T05:13:59;17.20;63.80
61672;DHT22;47572;0.00000000;0.00000000;2022-12-05T05:16:26;17.20;63.80
61672;DHT22;47572;0.00000000;0.00000000;2022-12-05T05:18:51;17.10;63.80
61672;DHT22;47572;0.00000000;0.00000000;2022-12-05T05:23:52;17.10;63.80
61672;DHT22;47572;0.00000000;0.00000000;2022-12-05T05:26:18;17.10;63.90
61672;DHT22;47572;0.00000000;0.00000000;2022-12-05T05:28:44;17.10;63.80
61672;DHT22;47572;0.00000000;0.00000000;2022-12-05T05:31:10;17.10;63.80
61672;DHT22;47572;0.00000000;0.00000000;2022-12-05T05:33:36;17.20;63.80
61672;DHT22;47572;0.00000000;0.00000000;2022-12-05T05:36:05;17.20;63.70
61672;DHT22;47572;0.00000000;0.00000000;2022-12-05T05:38:34;17.20;63.70
61672;DHT22;47572;0.00000000;0.00000000;2022-12-05T05:40:59;17.20;63.60
61672;DHT22;47572;0.00000000;0.00000000;2022-12-05T05:43:25;17.20;63.50
61672;DHT22;47572;0.00000000;0.00000000;2022-12-05T05:45:51;17.20;63.50
61672;DHT22;47572;0.00000000;0.00000000;2022-12-05T05:48:16;17.20;63.50
61672;DHT22;47572;0.00000000;0.00000000;2022-12-05T05:50:42;17.30;63.50
61672;DHT22;47572;0.00000000;0.00000000;2022-12-05T05:53:09;17.30;63.40
61672;DHT22;47572;0.00000000;0.00000000;2022-12-05T05:55:34;17.30;63.40
61672;DHT22;47572;0.00000000;0.00000000;2022-12-05T05:58:03;17.30;63.40
61672;DHT22;47572;0.00000000;0.00000000;2022-12-05T06:00:28;17.30;63.30
61672;DHT22;47572;0.00000000;0.00000000;2022-12-05T06:02:54;17.40;63.20
61672;DHT22;47572;0.00000000;0.00000000;2022-12-05T06:05:20;17.40;63.20
61672;DHT22;47572;0.00000000;0.00000000;2022-12-05T06:07:45;17.40;63.20
61672;DHT22;47572;0.00000000;0.00000000;2022-12-05T06:10:11;17.40;63.10
61672;DHT22;47572;0.00000000;0.00000000;2022-12-05T06:12:37;17.40;63.10
61672;DHT22;47572;0.00000000;0.00000000;2022-12-05T06:15:02;17.40;63.00
61672;DHT22;47572;0.00000000;0.00000000;2022-12-05T06:17:29;17.40;63.00
61672;DHT22;47572;0.00000000;0.00000000;2022-12-05T06:19:54;17.40;62.90
61672;DHT22;47572;0.00000000;0.00000000;2022-12-05T06:22:20;17.50;62.90
61672;DHT22;47572;0.00000000;0.00000000;2022-12-05T06:24:46;17.50;62.90
61672;DHT22;47572;0.00000000;0.00000000;2022-12-05T06:27:11;17.50;62.80
61672;DHT22;47572;0.00000000;0.00000000;2022-12-05T06:29:37;17.50;62.80
61672;DHT22;47572;0.00000000;0.00000000;2022-12-05T06:32:03;17.50;62.80
61672;DHT22;47572;0.00000000;0.00000000;2022-12-05T06:34:30;17.50;62.70
61672;DHT22;47572;0.00000000;0.00000000;2022-12-05T06:36:57;17.50;62.70
61672;DHT22;47572;0.00000000;0.00000000;2022-12-05T06:39:23;17.50;62.60
61672;DHT22;47572;0.00000000;0.00000000;2022-12-05T06:41:50;17.50;62.60
61672;DHT22;47572;0.00000000;0.00000000;2022-12-05T06:44:16;17.50;62.60
61672;DHT22;47572;0.00000000;0.00000000;2022-12-05T06:46:41;17.50;62.60
61672;DHT22;47572;0.00000000;0.00000000;2022-12-05T06:49:11;17.50;62.60
61672;DHT22;47572;0.00000000;0.00000000;2022-12-05T06:51:37;17.50;62.60
61672;DHT22;47572;0.00000000;0.00000000;2022-12-05T06:54:04;17.50;62.50
61672;DHT22;47572;0.00000000;0.00000000;2022-12-05T06:56:29;17.50;62.60
61672;DHT22;47572;0.00000000;0.00000000;2022-12-05T06:58:55;17.50;62.60
61672;DHT22;47572;0.00000000;0.00000000;2022-12-05T07:01:21;17.50;62.60
61672;DHT22;47572;0.00000000;0.00000000;2022-12-05T07:04:04;17.50;62.50
61672;DHT22;47572;0.00000000;0.00000000;2022-12-05T07:06:30;17.50;62.60
61672;DHT22;47572;0.00000000;0.00000000;2022-12-05T07:08:56;17.50;62.60
61672;DHT22;47572;0.00000000;0.00000000;2022-12-05T07:11:21;17.60;62.60
61672;DHT22;47572;0.00000000;0.00000000;2022-12-05T07:13:47;17.50;62.50
61672;DHT22;47572;0.00000000;0.00000000;2022-12-05T07:16:13;17.50;62.50
61672;DHT22;47572;0.00000000;0.00000000;2022-12-05T07:18:39;17.50;62.60
61672;DHT22;47572;0.00000000;0.00000000;2022-12-05T07:21:09;17.50;62.60
61672;DHT22;47572;0.00000000;0.00000000;2022-12-05T07:23:36;17.50;62.60
61672;DHT22;47572;0.00000000;0.00000000;2022-12-05T07:26:05;17.50;62.60
61672;DHT22;47572;0.00000000;0.00000000;2022-12-05T07:28:31;17.50;62.90
61672;DHT22;47572;0.00000000;0.00000000;2022-12-05T07:31:01;17.50;62.60
61672;DHT22;47572;0.00000000;0.00000000;2022-12-05T07:33:27;17.50;62.60
61672;DHT22;47572;0.00000000;0.00000000;2022-12-05T07:35:53;17.50;62.60
61672;DHT22;47572;0.00000000;0.00000000;2022-12-05T07:38:23;17.40;62.50
61672;DHT22;47572;0.00000000;0.00000000;2022-12-05T07:40:48;17.40;62.50
61672;DHT22;47572;0.00000000;0.00000000;2022-12-05T07:43:14;17.40;62.50
61672;DHT22;47572;0.00000000;0.00000000;2022-12-05T07:45:40;17.40;62.50
61672;DHT22;47572;0.00000000;0.00000000;2022-12-05T07:48:05;17.40;62.60
61672;DHT22;47572;0.00000000;0.00000000;2022-12-05T07:50:31;17.40;62.60
61672;DHT22;47572;0.00000000;0.00000000;2022-12-05T07:52:57;17.40;62.60
61672;DHT22;47572;0.00000000;0.00000000;2022-12-05T07:55:23;17.40;62.60
61672;DHT22;47572;0.00000000;0.00000000;2022-12-05T07:57:49;17.40;62.50
61672;DHT22;47572;0.00000000;0.00000000;2022-12-05T08:00:14;17.40;62.60
61672;DHT22;47572;0.00000000;0.00000000;2022-12-05T08:02:40;17.40;62.60
61672;DHT22;47572;0.00000000;0.00000000;2022-12-05T08:05:06;17.40;62.60
61672;DHT22;47572;0.00000000;0.00000000;2022-12-05T08:07:32;17.40;62.60
61672;DHT22;47572;0.00000000;0.00000000;2022-12-05T08:09:58;17.40;62.60
61672;DHT22;47572;0.00000000;0.00000000;2022-12-05T08:12:23;17.40;62.70
61672;DHT22;47572;0.00000000;0.00000000;2022-12-05T08:14:49;17.40;62.60
61672;DHT22;47572;0.00000000;0.00000000;2022-12-05T08:17:15;17.40;62.60
61672;DHT22;47572;0.00000000;0.00000000;2022-12-05T08:19:41;17.40;62.60
61672;DHT22;47572;0.00000000;0.00000000;2022-12-05T08:22:26;17.40;62.50
61672;DHT22;47572;0.00000000;0.00000000;2022-12-05T08:24:52;17.40;62.60
61672;DHT22;47572;0.00000000;0.00000000;2022-12-05T08:27:17;17.40;62.50
61672;DHT22;47572;0.00000000;0.00000000;2022-12-05T08:29:43;17.40;62.50
61672;DHT22;47572;0.00000000;0.00000000;2022-12-05T08:32:09;17.40;62.50
61672;DHT22;47572;0.00000000;0.00000000;2022-12-05T08:34:34;17.30;63.30
61672;DHT22;47572;0.00000000;0.00000000;2022-12-05T08:37:00;17.30;63.50
61672;DHT22;47572;0.00000000;0.00000000;2022-12-05T08:39:26;17.30;64.10
61672;DHT22;47572;0.00000000;0.00000000;2022-12-05T08:41:51;17.40;64.30
61672;DHT22;47572;0.00000000;0.00000000;2022-12-05T08:44:17;17.40;63.30
61672;DHT22;47572;0.00000000;0.00000000;2022-12-05T08:46:44;17.40;63.10
61672;DHT22;47572;0.00000000;0.00000000;2022-12-05T08:49:10;17.50;63.00
61672;DHT22;47572;0.00000000;0.00000000;2022-12-05T08:51:36;17.60;62.80
61672;DHT22;47572;0.00000000;0.00000000;2022-12-05T08:54:02;17.80;62.60
61672;DHT22;47572;0.00000000;0.00000000;2022-12-05T08:56:29;17.90;62.30
61672;DHT22;47572;0.00000000;0.00000000;2022-12-05T08:58:55;18.10;62.20
61672;DHT22;47572;0.00000000;0.00000000;2022-12-05T09:01:21;18.20;61.80
61672;DHT22;47572;0.00000000;0.00000000;2022-12-05T09:03:47;18.30;61.40
61672;DHT22;47572;0.00000000;0.00000000;2022-12-05T09:08:41;18.60;60.80
61672;DHT22;47572;0.00000000;0.00000000;2022-12-05T09:11:17;18.80;60.50
61672;DHT22;47572;0.00000000;0.00000000;2022-12-05T09:13:43;18.90;60.20
61672;DHT22;47572;0.00000000;0.00000000;2022-12-05T09:16:10;19.00;60.00
61672;DHT22;47572;0.00000000;0.00000000;2022-12-05T09:18:36;19.10;59.80
61672;DHT22;47572;0.00000000;0.00000000;2022-12-05T09:21:06;19.20;59.60
61672;DHT22;47572;0.00000000;0.00000000;2022-12-05T09:23:32;19.20;59.40
61672;DHT22;47572;0.00000000;0.00000000;2022-12-05T09:25:58;19.30;59.40
61672;DHT22;47572;0.00000000;0.00000000;2022-12-05T09:28:27;19.40;59.40
61672;DHT22;47572;0.00000000;0.00000000;2022-12-05T09:31:00;19.40;59.40
61672;DHT22;47572;0.00000000;0.00000000;2022-12-05T09:33:26;19.40;59.30
61672;DHT22;47572;0.00000000;0.00000000;2022-12-05T09:35:52;19.50;59.40
61672;DHT22;47572;0.00000000;0.00000000;2022-12-05T09:38:18;19.50;59.30
61672;DHT22;47572;0.00000000;0.00000000;2022-12-05T09:40:44;19.50;59.20
61672;DHT22;47572;0.00000000;0.00000000;2022-12-05T09:43:17;19.50;59.20
61672;DHT22;47572;0.00000000;0.00000000;2022-12-05T09:46:30;19.50;59.20
61672;DHT22;47572;0.00000000;0.00000000;2022-12-05T09:48:35;19.50;59.20
61672;DHT22;47572;0.00000000;0.00000000;2022-12-05T09:51:03;19.50;59.20
61672;DHT22;47572;0.00000000;0.00000000;2022-12-05T09:53:33;19.60;59.20
61672;DHT22;47572;0.00000000;0.00000000;2022-12-05T10:00:58;19.60;59.30
61672;DHT22;47572;0.00000000;0.00000000;2022-12-05T10:03:28;19.60;59.30
61672;DHT22;47572;0.00000000;0.00000000;2022-12-05T10:06:19;19.60;59.30
61672;DHT22;47572;0.00000000;0.00000000;2022-12-05T10:13:44;19.60;59.40
61672;DHT22;47572;0.00000000;0.00000000;2022-12-05T10:16:17;19.60;59.40
61672;DHT22;47572;0.00000000;0.00000000;2022-12-05T10:18:47;19.60;59.50
61672;DHT22;47572;0.00000000;0.00000000;2022-12-05T10:21:18;19.60;59.50
61672;DHT22;47572;0.00000000;0.00000000;2022-12-05T10:23:50;19.60;59.50
61672;DHT22;47572;0.00000000;0.00000000;2022-12-05T10:26:17;19.60;59.60
61672;DHT22;47572;0.00000000;0.00000000;2022-12-05T10:31:10;19.60;59.70
61672;DHT22;47572;0.00000000;0.00000000;2022-12-05T10:33:38;19.60;59.60
61672;DHT22;47572;0.00000000;0.00000000;2022-12-05T10:36:11;19.60;59.70
61672;DHT22;47572;0.00000000;0.00000000;2022-12-05T10:38:37;19.60;59.70
61672;DHT22;47572;0.00000000;0.00000000;2022-12-05T10:41:07;19.60;59.60
61672;DHT22;47572;0.00000000;0.00000000;2022-12-05T10:43:33;19.60;59.70
61672;DHT22;47572;0.00000000;0.00000000;2022-12-05T10:45:59;19.60;59.80
61672;DHT22;47572;0.00000000;0.00000000;2022-12-05T10:48:26;19.60;59.90
61672;DHT22;47572;0.00000000;0.00000000;2022-12-05T10:50:53;19.60;59.90
61672;DHT22;47572;0.00000000;0.00000000;2022-12-05T10:56:05;19.50;60.10
61672;DHT22;47572;0.00000000;0.00000000;2022-12-05T10:58:56;19.40;60.30
61672;DHT22;47572;0.00000000;0.00000000;2022-12-05T11:01:22;19.30;60.60
61672;DHT22;47572;0.00000000;0.00000000;2022-12-05T11:03:54;19.30;60.70
61672;DHT22;47572;0.00000000;0.00000000;2022-12-05T11:06:27;19.20;61.00
61672;DHT22;47572;0.00000000;0.00000000;2022-12-05T11:08:56;19.10;61.20
61672;DHT22;47572;0.00000000;0.00000000;2022-12-05T11:11:24;19.00;61.50
61672;DHT22;47572;0.00000000;0.00000000;2022-12-05T11:14:05;19.00;61.70
61672;DHT22;47572;0.00000000;0.00000000;2022-12-05T11:16:35;18.90;61.90
61672;DHT22;47572;0.00000000;0.00000000;2022-12-05T11:22:03;18.80;62.20
61672;DHT22;47572;0.00000000;0.00000000;2022-12-05T11:24:30;18.80;62.50
61672;DHT22;47572;0.00000000;0.00000000;2022-12-05T11:26:57;18.80;62.50
61672;DHT22;47572;0.00000000;0.00000000;2022-12-05T11:29:27;18.80;62.60
61672;DHT22;47572;0.00000000;0.00000000;2022-12-05T11:31:53;18.80;62.60
61672;DHT22;47572;0.00000000;0.00000000;2022-12-05T11:34:20;18.90;62.80
61672;DHT22;47572;0.00000000;0.00000000;2022-12-05T11:36:53;18.90;62.70
61672;DHT22;47572;0.00000000;0.00000000;2022-12-05T11:39:20;19.10;62.70
61672;DHT22;47572;0.00000000;0.00000000;2022-12-05T11:44:21;19.30;62.50
61672;DHT22;47572;0.00000000;0.00000000;2022-12-05T11:47:13;19.40;62.50
61672;DHT22;47572;0.00000000;0.00000000;2022-12-05T11:52:24;19.50;62.10
61672;DHT22;47572;0.00000000;0.00000000;2022-12-05T11:54:58;19.60;62.00
61672;DHT22;47572;0.00000000;0.00000000;2022-12-05T12:00:35;19.70;62.70
61672;DHT22;47572;0.00000000;0.00000000;2022-12-05T12:10:32;19.80;61.70
61672;DHT22;47572;0.00000000;0.00000000;2022-12-05T12:15:37;19.90;61.70
61672;DHT22;47572;0.00000000;0.00000000;2022-12-05T12:33:35;20.00;61.50
61672;DHT22;47572;0.00000000;0.00000000;2022-12-05T12:41:04;20.00;61.50
61672;DHT22;47572;0.00000000;0.00000000;2022-12-05T12:43:45;20.00;61.50
61672;DHT22;47572;0.00000000;0.00000000;2022-12-05T12:51:12;20.00;61.50
61672;DHT22;47572;0.00000000;0.00000000;2022-12-05T13:03:58;20.00;61.50
61672;DHT22;47572;0.00000000;0.00000000;2022-12-05T13:08:54;20.00;61.60
61672;DHT22;47572;0.00000000;0.00000000;2022-12-05T13:11:20;20.00;61.50
61672;DHT22;47572;0.00000000;0.00000000;2022-12-05T13:13:51;20.00;61.60
61672;DHT22;47572;0.00000000;0.00000000;2022-12-05T13:16:31;20.00;61.60
61672;DHT22;47572;0.00000000;0.00000000;2022-12-05T13:18:58;20.00;61.60
61672;DHT22;47572;0.00000000;0.00000000;2022-12-05T13:21:25;20.00;61.60
61672;DHT22;47572;0.00000000;0.00000000;2022-12-05T13:23:52;20.00;61.60
61672;DHT22;47572;0.00000000;0.00000000;2022-12-05T13:26:20;20.00;61.60
61672;DHT22;47572;0.00000000;0.00000000;2022-12-05T13:28:54;20.00;61.60
61672;DHT22;47572;0.00000000;0.00000000;2022-12-05T13:31:37;20.00;61.60
61672;DHT22;47572;0.00000000;0.00000000;2022-12-05T13:34:03;20.00;61.40
61672;DHT22;47572;0.00000000;0.00000000;2022-12-05T13:36:29;20.00;61.50
61672;DHT22;47572;0.00000000;0.00000000;2022-12-05T13:39:21;20.00;61.50
61672;DHT22;47572;0.00000000;0.00000000;2022-12-05T13:42:12;20.00;61.60
61672;DHT22;47572;0.00000000;0.00000000;2022-12-05T13:47:22;20.00;61.60
61672;DHT22;47572;0.00000000;0.00000000;2022-12-05T13:49:53;20.00;61.60
61672;DHT22;47572;0.00000000;0.00000000;2022-12-05T13:52:22;20.00;61.50
61672;DHT22;47572;0.00000000;0.00000000;2022-12-05T13:55:02;20.10;61.60
61672;DHT22;47572;0.00000000;0.00000000;2022-12-05T14:10:15;20.10;61.40
61672;DHT22;47572;0.00000000;0.00000000;2022-12-05T14:12:46;20.10;61.40
61672;DHT22;47572;0.00000000;0.00000000;2022-12-05T14:18:15;20.10;61.40
61672;DHT22;47572;0.00000000;0.00000000;2022-12-05T14:26:01;20.10;61.40
61672;DHT22;47572;0.00000000;0.00000000;2022-12-05T14:33:40;20.10;61.50
61672;DHT22;47572;0.00000000;0.00000000;2022-12-05T14:36:06;20.10;61.50
61672;DHT22;47572;0.00000000;0.00000000;2022-12-05T14:38:33;20.10;61.60
61672;DHT22;47572;0.00000000;0.00000000;2022-12-05T14:41:14;20.10;61.60
61672;DHT22;47572;0.00000000;0.00000000;2022-12-05T14:43:41;20.10;61.60
61672;DHT22;47572;0.00000000;0.00000000;2022-12-05T14:46:13;20.10;61.60
61672;DHT22;47572;0.00000000;0.00000000;2022-12-05T14:48:41;20.10;61.70
61672;DHT22;47572;0.00000000;0.00000000;2022-12-05T14:53:53;20.10;61.80
61672;DHT22;47572;0.00000000;0.00000000;2022-12-05T14:56:23;20.10;61.70
61672;DHT22;47572;0.00000000;0.00000000;2022-12-05T15:01:42;20.10;61.70
61672;DHT22;47572;0.00000000;0.00000000;2022-12-05T15:06:52;20.10;61.70
61672;DHT22;47572;0.00000000;0.00000000;2022-12-05T15:09:30;20.10;61.70
61672;DHT22;47572;0.00000000;0.00000000;2022-12-05T15:11:59;20.10;61.70
61672;DHT22;47572;0.00000000;0.00000000;2022-12-05T15:14:26;20.10;61.70
61672;DHT22;47572;0.00000000;0.00000000;2022-12-05T15:16:52;20.10;61.70
61672;DHT22;47572;0.00000000;0.00000000;2022-12-05T15:19:26;20.10;61.70
61672;DHT22;47572;0.00000000;0.00000000;2022-12-05T15:21:55;20.10;61.80
61672;DHT22;47572;0.00000000;0.00000000;2022-12-05T15:24:22;20.10;61.70
61672;DHT22;47572;0.00000000;0.00000000;2022-12-05T15:36:48;20.00;61.90
61672;DHT22;47572;0.00000000;0.00000000;2022-12-05T15:39:17;20.00;61.90
61672;DHT22;47572;0.00000000;0.00000000;2022-12-05T15:41:44;20.00;61.90
61672;DHT22;47572;0.00000000;0.00000000;2022-12-05T15:44:10;20.00;61.90
61672;DHT22;47572;0.00000000;0.00000000;2022-12-05T15:46:36;20.00;61.90
61672;DHT22;47572;0.00000000;0.00000000;2022-12-05T15:49:14;20.00;61.90
61672;DHT22;47572;0.00000000;0.00000000;2022-12-05T15:51:40;20.00;62.00
61672;DHT22;47572;0.00000000;0.00000000;2022-12-05T15:54:14;20.00;62.00
61672;DHT22;47572;0.00000000;0.00000000;2022-12-05T15:56:42;20.00;62.00
61672;DHT22;47572;0.00000000;0.00000000;2022-12-05T15:59:12;20.00;62.10
61672;DHT22;47572;0.00000000;0.00000000;2022-12-05T16:01:42;20.00;62.10
61672;DHT22;47572;0.00000000;0.00000000;2022-12-05T16:04:12;19.90;62.10
61672;DHT22;47572;0.00000000;0.00000000;2022-12-05T16:09:12;19.90;62.20
61672;DHT22;47572;0.00000000;0.00000000;2022-12-05T16:11:48;19.90;62.20
61672;DHT22;47572;0.00000000;0.00000000;2022-12-05T16:14:14;19.90;62.30
61672;DHT22;47572;0.00000000;0.00000000;2022-12-05T16:16:40;19.90;62.30
61672;DHT22;47572;0.00000000;0.00000000;2022-12-05T16:19:12;19.90;62.30
61672;DHT22;47572;0.00000000;0.00000000;2022-12-05T16:21:41;19.90;62.30
61672;DHT22;47572;0.00000000;0.00000000;2022-12-05T16:24:14;19.90;62.40